Latest Weather Observations for Curtin

IDW60801

Issued at 9:13 pm WST Monday 18 June 2018 (issued every 10 minutes, with the page automatically refreshed every 10 minutes)

About weather observations | Map of weather stations | Latest weather observations for WA | Other Formats
Station Details ID: 003080 Name: CURTIN AERO Lat: -17.58 Lon: 123.83 Height: 77.5 m
Data from the previous 72 hours. | See also: Recent months at Curtin
Date/Time
WST
Temp
°C
App
Temp
°C
Dew
Point
°C
Rel
Hum
%
Delta-T
°C
Wind Press
QNH
hPa
Press
MSL
hPa
Rain since
9am
mm
Dir  Spd
km/h
Gust
km/h
Spd
kts
Gust
kts
18/09:00pm 17.8 14.1 4.7 42 6.3 S 13 15 7 8 1016.1 1015.7 0.0
18/08:30pm 18.5 15.2 4.7 40 6.6 S 11 13 6 7 1015.9 1015.5 0.0
18/08:00pm 19.1 15.9 5.2 40 6.8 S 11 13 6 7 1015.7 1015.3 0.0
18/07:30pm 20.1 16.6 5.4 38 7.3 S 13 15 7 8 1015.4 1015.0 0.0
18/07:00pm 21.3 17.5 6.0 37 7.7 SSE 15 15 8 8 1014.9 1014.5 0.0
18/06:30pm 21.6 18.0 6.7 38 7.6 S 15 15 8 8 1014.3 1014.0 0.0
18/06:00pm 23.2 20.1 5.6 32 8.9 S 11 13 6 7 1013.9 1013.6 0.0
18/05:30pm 23.8 20.4 5.7 31 9.2 S 13 13 7 7 1013.5 1013.2 0.0
18/05:00pm 27.2 24.1 5.5 25 11.2 S 11 11 6 6 1013.2 1012.9 0.0
18/04:30pm 28.9 25.8 3.7 20 12.8 SE 9 15 5 8 1012.9 1012.6 0.0
18/04:00pm 29.6 26.0 2.8 18 13.4 ESE 11 15 6 8 1012.6 1012.3 0.0
18/03:30pm 29.8 26.2 2.9 18 13.5 SE 11 17 6 9 1012.5 1012.2 0.0
18/03:00pm 30.3 27.3 4.1 19 13.5 SE 9 15 5 8 1012.5 1012.2 0.0
18/02:30pm 29.8 26.6 2.9 18 13.5 ENE 9 13 5 7 1012.7 1012.4 0.0
18/02:00pm 30.5 27.2 4.3 19 13.6 E 11 17 6 9 1012.8 1012.5 0.0
18/01:30pm 29.1 25.7 3.9 20 12.8 E 11 20 6 11 1013.1 1012.8 0.0
18/01:00pm 29.3 25.5 4.0 20 12.9 ESE 13 20 7 11 1013.5 1013.2 0.0
18/12:30pm 28.5 24.6 3.4 20 12.6 ESE 13 20 7 11 1013.9 1013.6 0.0
18/12:00pm 28.5 24.7 4.1 21 12.4 E 13 20 7 11 1014.5 1014.2 0.0
18/11:30am 27.4 23.2 3.8 22 11.9 E 15 20 8 11 1015.4 1015.0 0.0
18/11:00am 26.9 22.5 2.7 21 11.9 ESE 15 24 8 13 1015.9 1015.5 0.0
18/10:30am 26.3 21.6 2.9 22 11.5 ESE 17 22 9 12 1016.4 1016.0 0.0
18/10:00am 25.5 20.4 2.9 23 11.0 E 19 28 10 15 1016.5 1016.1 0.0
18/09:30am 24.2 18.9 2.9 25 10.3 E 20 30 11 16 1017.0 1016.6 0.0
18/09:00am 23.1 18.1 4.6 30 9.2 E 20 28 11 15 1017.0 1016.6 0.0
18/08:30am 20.6 14.5 2.9 31 8.4 E 24 32 13 17 1016.9 1016.5 0.0
18/08:00am 19.5 14.1 2.4 32 7.9 E 20 32 11 17 1016.9 1016.5 0.0
18/07:30am 18.1 12.6 2.0 34 7.3 ESE 20 32 11 17 1016.8 1016.4 0.0
18/07:00am 16.9 11.0 1.4 35 6.9 ESE 22 32 12 17 1016.7 1016.3 0.0
18/06:30am 16.2 10.5 0.7 35 6.7 ESE 20 30 11 16 1016.5 1016.1 0.0
18/06:00am 16.2 10.5 0.3 34 6.8 ESE 20 32 11 17 1016.2 1015.8 0.0
18/05:30am 16.5 10.4 0.6 34 6.9 ESE 22 30 12 16 1016.1 1015.7 0.0
18/05:00am 16.5 10.8 0.6 34 6.9 ESE 20 26 11 14 1016.0 1015.6 0.0
18/04:30am 17.0 11.2 0.2 32 7.3 SE 20 26 11 14 1015.9 1015.5 0.0
18/04:00am 17.2 11.1 0.4 32 7.3 SE 22 30 12 16 1015.8 1015.4 0.0
18/03:30am 17.5 11.7 0.2 31 7.5 SE 20 28 11 15 1015.8 1015.4 0.0
18/03:00am 17.9 12.1 0.1 30 7.8 ESE 20 30 11 16 1015.8 1015.4 0.0
18/02:30am 17.9 12.3 0.1 30 7.8 SE 19 28 10 15 1015.9 1015.5 0.0
18/02:00am 17.7 12.1 -0.1 30 7.7 SE 19 26 10 14 1016.0 1015.6 0.0
18/01:30am 17.9 12.1 -0.4 29 7.9 SE 20 28 11 15 1016.1 1015.7 0.0
18/01:00am 18.2 12.4 -0.1 29 8.0 SE 20 28 11 15 1016.3 1015.9 0.0
18/12:30am 17.9 12.7 0.1 30 7.8 SE 17 24 9 13 1016.5 1016.1 0.0
18/12:00am 18.1 12.9 0.3 30 7.8 SE 17 22 9 12 1016.5 1016.1 0.0
 
Date/Time
WST
Temp
°C
App
Temp
°C
Dew
Point
°C
Rel
Hum
%
Delta-T
°C
Wind Press
QNH
hPa
Press
MSL
hPa
Rain since
9am
mm
Dir  Spd
km/h
Gust
km/h
Spd
kts
Gust
kts
17/11:30pm 18.6 13.4 0.2 29 8.1 SE 17 26 9 14 1016.5 1016.1 0.0
17/11:00pm 19.3 14.2 0.8 29 8.3 SE 17 22 9 12 1016.6 1016.2 0.0
17/10:30pm 20.0 14.9 1.0 28 8.6 SE 17 22 9 12 1016.9 1016.5 0.0
17/10:00pm 20.4 15.4 1.3 28 8.7 SE 17 22 9 12 1017.0 1016.6 0.0
17/09:30pm 20.9 16.0 2.2 29 8.7 SE 17 24 9 13 1017.1 1016.7 0.0
17/09:00pm 21.0 16.9 2.3 29 8.7 SE 13 19 7 10 1017.0 1016.6 0.0
17/08:30pm 21.5 17.1 2.7 29 8.9 SE 15 19 8 10 1016.9 1016.5 0.0
17/08:00pm 22.1 18.2 3.3 29 9.0 SE 13 17 7 9 1016.9 1016.5 0.0
17/07:30pm 22.6 18.8 3.7 29 9.2 SE 13 17 7 9 1016.7 1016.3 0.0
17/07:00pm 23.3 19.5 3.8 28 9.5 SE 13 17 7 9 1016.5 1016.1 0.0
17/06:30pm 24.3 20.2 4.1 27 10.0 SE 15 20 8 11 1016.3 1015.9 0.0
17/06:00pm 25.1 21.6 5.3 28 10.1 SE 13 17 7 9 1016.1 1015.7 0.0
17/05:30pm 25.2 22.3 6.4 30 9.8 SE 11 13 6 7 1015.7 1015.3 0.0
17/05:00pm 27.5 24.4 5.7 25 11.3 SE 11 13 6 7 1015.4 1015.0 0.0
17/04:30pm 29.0 25.0 5.1 22 12.4 SE 15 20 8 11 1015.2 1014.8 0.0
17/04:00pm 30.0 25.2 4.6 20 13.2 SE 19 24 10 13 1015.0 1014.6 0.0
17/03:30pm 30.6 25.7 5.1 20 13.4 SSE 20 28 11 15 1014.8 1014.4 0.0
17/03:00pm 31.1 25.8 4.8 19 13.8 SSE 22 32 12 17 1014.8 1014.4 0.0
17/02:30pm 31.2 27.0 5.6 20 13.6 ESE 17 26 9 14 1014.9 1014.5 0.0
17/02:00pm 31.0 26.2 4.7 19 13.7 SE 19 28 10 15 1015.1 1014.7 0.0
17/01:30pm 30.9 26.7 3.8 18 13.9 ESE 15 22 8 12 1015.2 1014.8 0.0
17/01:00pm 30.9 26.8 4.6 19 13.7 SE 15 24 8 13 1015.5 1015.1 0.0
17/12:30pm 30.1 25.6 4.0 19 13.4 ESE 17 24 9 13 1016.2 1015.8 0.0
17/12:00pm 29.7 25.6 4.4 20 13.0 ESE 15 20 8 11 1016.6 1016.2 0.0
17/11:30am 29.3 25.5 6.0 23 12.3 ESE 15 24 8 13 1017.0 1016.6 0.0
17/11:00am 28.2 23.6 5.7 24 11.7 E 19 26 10 14 1017.5 1017.1 0.0
17/10:30am 27.9 23.8 6.1 25 11.5 ESE 17 24 9 13 1017.9 1017.5 0.0
17/10:00am 26.8 22.2 5.7 26 10.9 E 19 26 10 14 1018.4 1018.0 0.0
17/09:30am 25.4 20.6 5.6 28 10.2 ESE 20 28 11 15 1018.6 1018.2 0.0
17/09:00am 24.0 19.0 4.4 28 9.7 ESE 20 28 11 15 1018.8 1018.4 0.0
17/08:30am 23.5 18.6 4.9 30 9.3 ESE 20 26 11 14 1018.9 1018.6 0.0
17/08:00am 21.9 16.7 3.6 30 8.8 ESE 20 30 11 16 1018.7 1018.3 0.0
17/07:30am 20.6 15.9 3.3 32 8.2 ESE 17 26 9 14 1018.6 1018.2 0.0
17/07:00am 19.5 14.2 2.8 33 7.8 ESE 20 30 11 16 1018.3 1017.9 0.0
17/06:30am 19.1 13.7 2.5 33 7.7 ESE 20 26 11 14 1017.8 1017.4 0.0
17/06:00am 19.3 14.1 2.6 33 7.7 ESE 19 24 10 13 1017.4 1017.0 0.0
17/05:30am 19.5 14.4 2.8 33 7.8 ESE 19 26 10 14 1017.1 1016.7 0.0
17/05:00am 19.7 14.6 3.0 33 7.8 ESE 19 28 10 15 1016.8 1016.4 0.0
17/04:30am 20.1 15.1 3.8 34 7.8 ESE 19 26 10 14 1016.7 1016.3 0.0
17/04:00am 20.3 15.4 3.9 34 7.9 SE 19 26 10 14 1016.5 1016.1 0.0
17/03:30am 20.7 15.8 4.3 34 8.0 SE 19 26 10 14 1016.4 1016.0 0.0
17/03:00am 20.9 16.1 4.5 34 8.0 SE 19 22 10 12 1016.3 1015.9 0.0
17/02:30am 21.3 16.5 4.8 34 8.1 SE 19 24 10 13 1016.4 1016.0 0.0
17/02:00am 21.9 17.6 5.3 34 8.3 SE 17 22 9 12 1016.4 1016.0 0.0
17/01:30am 22.3 18.2 6.1 35 8.2 ESE 17 26 9 14 1016.6 1016.2 0.0
17/01:00am 22.1 17.8 7.1 38 7.7 SE 19 24 10 13 1016.8 1016.4 0.0
17/12:30am 22.0 18.0 8.2 41 7.3 SE 19 24 10 13 1017.1 1016.7 0.0
17/12:00am 22.1 18.6 8.9 43 7.0 SE 17 22 9 12 1017.0 1016.6 0.0
 
Date/Time
WST
Temp
°C
App
Temp
°C
Dew
Point
°C
Rel
Hum
%
Delta-T
°C
Wind Press
QNH
hPa
Press
MSL
hPa
Rain since
9am
mm
Dir  Spd
km/h
Gust
km/h
Spd
kts
Gust
kts
16/11:30pm 22.7 19.8 9.5 43 7.1 SE 15 20 8 11 1017.2 1016.8 0.0
16/11:00pm 23.7 20.3 9.3 40 7.8 SE 17 24 9 13 1017.2 1016.8 0.0
16/10:30pm 24.2 21.2 9.4 39 8.1 SE 15 20 8 11 1017.2 1016.8 0.0
16/10:00pm 23.8 21.3 9.8 41 7.7 SE 13 19 7 10 1017.3 1016.9 0.0
16/09:30pm 23.9 21.1 9.9 41 7.7 SE 15 19 8 10 1017.1 1016.7 0.0
16/09:00pm 24.2 21.5 10.5 42 7.6 SE 15 19 8 10 1017.0 1016.6 0.0
16/08:30pm 24.6 22.0 10.8 42 7.7 SE 15 19 8 10 1016.9 1016.5 0.0
16/08:00pm 25.0 23.1 11.9 44 7.5 SE 13 19 7 10 1016.9 1016.5 0.0
16/07:30pm 25.5 23.8 12.4 44 7.6 SE 13 17 7 9 1016.7 1016.3 0.0
16/07:00pm 26.0 24.7 12.5 43 7.8 SE 11 15 6 8 1016.4 1016.0 0.0
16/06:30pm 27.2 25.7 13.2 42 8.3 SE 13 15 7 8 1016.1 1015.7 0.0
16/06:00pm 27.2 26.4 13.9 44 7.9 SSE 11 13 6 7 1015.7 1015.3 0.0
16/05:30pm 28.0 27.5 13.9 42 8.4 SE 9 13 5 7 1015.4 1015.0 0.0
16/05:00pm 29.9 28.8 13.2 36 10.0 SE 11 13 6 7 1015.1 1014.7 0.0
16/04:30pm 31.1 29.5 12.9 32 10.9 SSE 13 15 7 8 1014.9 1014.5 0.0
16/04:00pm 31.2 29.3 13.0 33 10.9 SSE 15 22 8 12 1014.7 1014.3 0.0
16/03:30pm 31.0 29.6 13.3 34 10.6 ESE 13 17 7 9 1014.5 1014.2 0.0
16/03:00pm 31.9 30.2 13.6 32 11.1 ESE 15 24 8 13 1014.5 1014.2 0.0
16/02:30pm 32.2 31.0 13.9 33 11.1 ESE 13 19 7 10 1014.7 1014.3 0.0
16/02:00pm 31.7 30.3 13.5 33 11.0 SE 13 19 7 10 1015.0 1014.6 0.0
16/01:30pm 31.9 30.4 14.1 34 10.8 E 15 24 8 13 1015.3 1014.9 0.0
16/01:00pm 31.4 30.0 14.5 35 10.3 NE 15 26 8 14 1015.4 1015.0 0.0
16/12:30pm 30.9 29.4 14.1 36 10.2 NE 15 24 8 13 1016.0 1015.6 0.0
16/12:00pm 30.6 28.6 13.8 35 10.1 ENE 17 22 9 12 1016.5 1016.1 0.0
16/11:30am 30.1 27.4 13.4 36 10.0 E 20 35 11 19 1016.9 1016.5 0.0
16/11:00am 30.1 27.7 13.8 37 9.8 ENE 19 28 10 15 1017.2 1016.8 0.0
16/10:30am 29.6 26.9 13.4 37 9.7 E 20 30 11 16 1017.5 1017.1 0.0
16/10:00am 28.7 26.0 13.4 39 9.1 E 20 33 11 18 1017.8 1017.4 0.0
16/09:30am 28.1 25.5 13.2 39 8.8 E 19 26 10 14 1017.9 1017.5 0.0
16/09:00am 25.8 23.0 11.2 40 8.3 ESE 17 24 9 13 1017.9 1017.5 0.0
16/08:30am 25.1 21.8 10.9 41 8.0 ESE 19 24 10 13 1018.0 1017.6 0.0
16/08:00am 24.1 20.4 10.0 41 7.7 ESE 20 30 11 16 1017.8 1017.4 0.0
16/07:30am 22.9 19.1 9.7 43 7.2 ESE 20 32 11 17 1017.5 1017.1 0.0
16/07:00am 22.4 18.4 9.2 43 7.1 ESE 20 28 11 15 1017.1 1016.7 0.0
16/06:30am 22.2 18.4 9.0 43 7.1 ESE 19 32 10 17 1016.7 1016.3 0.0
16/06:00am 22.1 17.8 9.3 44 6.9 ESE 22 33 12 18 1016.4 1016.0 0.0
16/05:30am 22.1 17.8 9.3 44 6.9 ESE 22 32 12 17 1016.0 1015.6 0.0
16/05:00am 22.1 18.2 9.3 44 6.9 ESE 20 30 11 16 1015.7 1015.3 0.0
16/04:30am 22.0 18.1 9.5 45 6.7 ESE 20 26 11 14 1015.5 1015.1 0.0
16/04:00am 22.0 18.3 9.5 45 6.7 SE 19 28 10 15 1015.1 1014.7 0.0
16/03:30am 21.8 18.2 9.7 46 6.5 SE 19 26 10 14 1015.1 1014.7 0.0
16/03:00am 21.6 18.4 9.8 47 6.4 SE 17 24 9 13 1015.1 1014.7 0.0
16/02:30am 21.9 18.3 9.8 46 6.6 SE 19 26 10 14 1015.0 1014.6 0.0
16/02:00am 22.4 18.8 9.9 45 6.8 SE 19 26 10 14 1015.0 1014.6 0.0
16/01:30am 22.5 19.2 9.6 44 7.0 SE 17 22 9 12 1015.2 1014.8 0.0
16/01:00am 22.7 19.5 9.8 44 7.0 SE 17 20 9 11 1015.5 1015.1 0.0
16/12:30am 22.7 19.8 9.8 44 7.0 SE 15 20 8 11 1015.7 1015.3 0.0
16/12:00am 22.7 20.2 9.8 44 7.0 SE 13 17 7 9 1015.8 1015.4 0.0
 
Date/Time
WST
Temp
°C
App
Temp
°C
Dew
Point
°C
Rel
Hum
%
Delta-T
°C
Wind Press
QNH
hPa
Press
MSL
hPa
Rain since
9am
mm
Dir  Spd
km/h
Gust
km/h
Spd
kts
Gust
kts
15/11:30pm 23.1 20.6 9.8 43 7.3 SE 13 17 7 9 1015.9 1015.5 0.0
15/11:00pm 23.9 20.6 9.5 40 7.8 SE 17 20 9 11 1015.9 1015.5 0.0
15/10:30pm 24.8 21.5 9.5 38 8.4 SE 17 20 9 11 1016.0 1015.6 0.0
15/10:00pm 24.7 22.2 9.8 39 8.2 SE 13 17 7 9 1016.1 1015.7 0.0
15/09:30pm 24.6 22.2 10.1 40 8.0 SE 13 17 7 9 1015.8 1015.4 0.0

Other Formats:

Comma delimited format used in spreadsheet applications
http://www.bom.gov.au/fwo/IDW60801/IDW60801.94204.axf

JavaScript Object Notation format (JSON) in row-major order
http://www.bom.gov.au/fwo/IDW60801/IDW60801.94204.json